Verhnij Ufalej, Russia
Current Conditions -  °F | °C
As of 3:00 AM on Tuesday 23 Dec 2014 (Local Time) from USSS Reporting Station
Overcast Overcast  
Wind Chill: 21°   Ceiling: 1100
Heat Index: 30°   Visibility: 6mi
Dew Point: 30°   Wind: 11mph
Humidity: 100%   Direction: 150°SSE
Pressure: 29.56"   Gusts: NA
Location:  56.06°N, 60.23°E
Report Text: USSS 222100Z 15005MPS 9999 OVC011CB M01/M01 Q1001 08590237NOSIG RMK QFE731
Loading
Personal Weather Stations






























Interactive Weather Map New forecast layout! Learn more

10-Day Weather Forecast

Advertisements
Track Severe Weather on mobile